sensor_id;sensor_type;location;lat;lon;timestamp;P1;durP1;ratioP1;P2;durP2;ratioP2
21825;SDS011;11075;47.944;11.776;2023-05-10T00:00:38;1.30;;;1.08;;
21825;SDS011;11075;47.944;11.776;2023-05-10T00:03:05;1.20;;;1.00;;
21825;SDS011;11075;47.944;11.776;2023-05-10T00:05:32;1.08;;;0.98;;
21825;SDS011;11075;47.944;11.776;2023-05-10T00:07:59;1.15;;;0.90;;
21825;SDS011;11075;47.944;11.776;2023-05-10T00:10:26;2.55;;;1.20;;
21825;SDS011;11075;47.944;11.776;2023-05-10T00:12:52;1.08;;;0.80;;
21825;SDS011;11075;47.944;11.776;2023-05-10T00:15:19;0.75;;;0.68;;
21825;SDS011;11075;47.944;11.776;2023-05-10T00:17:46;1.70;;;0.80;;
21825;SDS011;11075;47.944;11.776;2023-05-10T00:20:14;1.23;;;0.88;;
21825;SDS011;11075;47.944;11.776;2023-05-10T00:22:41;1.85;;;1.00;;
21825;SDS011;11075;47.944;11.776;2023-05-10T00:25:08;2.00;;;0.73;;
21825;SDS011;11075;47.944;11.776;2023-05-10T00:27:36;1.98;;;0.90;;
21825;SDS011;11075;47.944;11.776;2023-05-10T00:30:04;1.80;;;0.85;;
21825;SDS011;11075;47.944;11.776;2023-05-10T00:32:31;1.13;;;0.65;;
21825;SDS011;11075;47.944;11.776;2023-05-10T00:34:58;0.80;;;0.80;;
21825;SDS011;11075;47.944;11.776;2023-05-10T00:37:25;0.80;;;0.80;;
21825;SDS011;11075;47.944;11.776;2023-05-10T00:39:52;3.08;;;0.75;;
21825;SDS011;11075;47.944;11.776;2023-05-10T00:42:19;1.75;;;0.88;;
21825;SDS011;11075;47.944;11.776;2023-05-10T00:44:47;5.15;;;0.80;;
21825;SDS011;11075;47.944;11.776;2023-05-10T00:47:15;1.45;;;0.85;;
21825;SDS011;11075;47.944;11.776;2023-05-10T00:49:42;0.75;;;0.63;;
21825;SDS011;11075;47.944;11.776;2023-05-10T00:52:10;0.52;;;0.52;;
21825;SDS011;11075;47.944;11.776;2023-05-10T00:54:36;0.93;;;0.80;;
21825;SDS011;11075;47.944;11.776;2023-05-10T00:57:04;1.02;;;0.75;;
21825;SDS011;11075;47.944;11.776;2023-05-10T00:59:31;0.60;;;0.60;;
21825;SDS011;11075;47.944;11.776;2023-05-10T01:01:58;0.57;;;0.57;;
21825;SDS011;11075;47.944;11.776;2023-05-10T01:04:25;2.30;;;0.77;;
21825;SDS011;11075;47.944;11.776;2023-05-10T01:06:52;2.47;;;0.57;;
21825;SDS011;11075;47.944;11.776;2023-05-10T01:09:20;2.08;;;0.60;;
21825;SDS011;11075;47.944;11.776;2023-05-10T01:11:48;2.13;;;0.47;;
21825;SDS011;11075;47.944;11.776;2023-05-10T01:14:17;1.85;;;0.50;;
21825;SDS011;11075;47.944;11.776;2023-05-10T01:16:46;0.40;;;0.40;;
21825;SDS011;11075;47.944;11.776;2023-05-10T01:19:19;0.45;;;0.40;;
21825;SDS011;11075;47.944;11.776;2023-05-10T01:21:53;0.60;;;0.45;;
21825;SDS011;11075;47.944;11.776;2023-05-10T01:25:08;1.92;;;0.70;;
21825;SDS011;11075;47.944;11.776;2023-05-10T01:28:02;1.13;;;0.47;;
21825;SDS011;11075;47.944;11.776;2023-05-10T01:44:34;0.68;;;0.50;;
21825;SDS011;11075;47.944;11.776;2023-05-10T01:47:06;0.80;;;0.60;;
21825;SDS011;11075;47.944;11.776;2023-05-10T01:49:41;0.40;;;0.40;;
21825;SDS011;11075;47.944;11.776;2023-05-10T01:52:14;0.60;;;0.60;;
21825;SDS011;11075;47.944;11.776;2023-05-10T01:54:50;2.40;;;0.55;;
21825;SDS011;11075;47.944;11.776;2023-05-10T01:57:28;0.57;;;0.50;;
21825;SDS011;11075;47.944;11.776;2023-05-10T02:00:02;2.05;;;0.98;;
21825;SDS011;11075;47.944;11.776;2023-05-10T02:02:40;4.00;;;0.77;;
21825;SDS011;11075;47.944;11.776;2023-05-10T02:05:11;1.40;;;0.60;;
21825;SDS011;11075;47.944;11.776;2023-05-10T02:07:40;1.13;;;0.50;;
21825;SDS011;11075;47.944;11.776;2023-05-10T02:10:08;0.60;;;0.57;;
21825;SDS011;11075;47.944;11.776;2023-05-10T02:12:37;0.98;;;0.40;;
21825;SDS011;11075;47.944;11.776;2023-05-10T02:15:07;1.52;;;0.50;;
21825;SDS011;11075;47.944;11.776;2023-05-10T02:17:36;1.70;;;0.43;;
21825;SDS011;11075;47.944;11.776;2023-05-10T02:20:06;0.75;;;0.60;;
21825;SDS011;11075;47.944;11.776;2023-05-10T02:22:35;2.40;;;0.50;;
21825;SDS011;11075;47.944;11.776;2023-05-10T02:25:03;0.40;;;0.40;;
21825;SDS011;11075;47.944;11.776;2023-05-10T02:27:30;0.90;;;0.40;;
21825;SDS011;11075;47.944;11.776;2023-05-10T02:29:58;1.70;;;0.50;;
21825;SDS011;11075;47.944;11.776;2023-05-10T02:32:26;0.60;;;0.60;;
21825;SDS011;11075;47.944;11.776;2023-05-10T02:34:55;0.68;;;0.50;;
21825;SDS011;11075;47.944;11.776;2023-05-10T02:37:23;1.47;;;0.47;;
21825;SDS011;11075;47.944;11.776;2023-05-10T02:39:52;0.75;;;0.35;;
21825;SDS011;11075;47.944;11.776;2023-05-10T02:42:26;0.70;;;0.50;;
21825;SDS011;11075;47.944;11.776;2023-05-10T02:44:59;1.90;;;0.40;;
21825;SDS011;11075;47.944;11.776;2023-05-10T02:47:27;0.60;;;0.60;;
21825;SDS011;11075;47.944;11.776;2023-05-10T02:49:55;0.63;;;0.43;;
21825;SDS011;11075;47.944;11.776;2023-05-10T02:52:27;0.65;;;0.50;;
21825;SDS011;11075;47.944;11.776;2023-05-10T02:55:03;0.60;;;0.60;;
21825;SDS011;11075;47.944;11.776;2023-05-10T02:57:33;1.45;;;0.40;;
21825;SDS011;11075;47.944;11.776;2023-05-10T03:00:01;1.63;;;0.40;;
21825;SDS011;11075;47.944;11.776;2023-05-10T03:02:29;0.38;;;0.28;;
21825;SDS011;11075;47.944;11.776;2023-05-10T03:04:58;1.60;;;0.50;;
21825;SDS011;11075;47.944;11.776;2023-05-10T03:07:25;0.77;;;0.40;;
21825;SDS011;11075;47.944;11.776;2023-05-10T03:09:52;0.70;;;0.37;;
21825;SDS011;11075;47.944;11.776;2023-05-10T03:15:13;2.40;;;0.40;;
21825;SDS011;11075;47.944;11.776;2023-05-10T03:17:55;0.30;;;0.30;;
21825;SDS011;11075;47.944;11.776;2023-05-10T03:20:29;2.20;;;0.50;;
21825;SDS011;11075;47.944;11.776;2023-05-10T03:23:11;0.60;;;0.40;;
21825;SDS011;11075;47.944;11.776;2023-05-10T03:25:46;0.50;;;0.50;;
21825;SDS011;11075;47.944;11.776;2023-05-10T03:28:16;0.73;;;0.40;;
21825;SDS011;11075;47.944;11.776;2023-05-10T03:30:44;1.03;;;0.30;;
21825;SDS011;11075;47.944;11.776;2023-05-10T03:33:13;1.23;;;0.40;;
21825;SDS011;11075;47.944;11.776;2023-05-10T03:35:43;0.23;;;0.23;;
21825;SDS011;11075;47.944;11.776;2023-05-10T03:38:13;1.27;;;0.50;;
21825;SDS011;11075;47.944;11.776;2023-05-10T03:40:40;0.80;;;0.50;;
21825;SDS011;11075;47.944;11.776;2023-05-10T03:43:07;2.30;;;0.60;;
21825;SDS011;11075;47.944;11.776;2023-05-10T03:45:34;0.60;;;0.40;;
21825;SDS011;11075;47.944;11.776;2023-05-10T03:48:02;0.33;;;0.33;;
21825;SDS011;11075;47.944;11.776;2023-05-10T03:50:29;0.30;;;0.30;;
21825;SDS011;11075;47.944;11.776;2023-05-10T03:52:56;0.40;;;0.20;;
21825;SDS011;11075;47.944;11.776;2023-05-10T03:55:23;0.30;;;0.30;;
21825;SDS011;11075;47.944;11.776;2023-05-10T03:57:51;0.40;;;0.40;;
21825;SDS011;11075;47.944;11.776;2023-05-10T04:00:17;0.55;;;0.50;;
21825;SDS011;11075;47.944;11.776;2023-05-10T04:02:48;4.17;;;0.90;;
21825;SDS011;11075;47.944;11.776;2023-05-10T04:05:18;1.47;;;0.40;;
21825;SDS011;11075;47.944;11.776;2023-05-10T04:07:45;1.25;;;0.63;;
21825;SDS011;11075;47.944;11.776;2023-05-10T04:10:13;1.58;;;0.30;;
21825;SDS011;11075;47.944;11.776;2023-05-10T04:12:40;0.40;;;0.40;;
21825;SDS011;11075;47.944;11.776;2023-05-10T04:15:07;0.30;;;0.30;;
21825;SDS011;11075;47.944;11.776;2023-05-10T04:17:35;0.50;;;0.40;;
21825;SDS011;11075;47.944;11.776;2023-05-10T04:20:02;0.77;;;0.20;;
21825;SDS011;11075;47.944;11.776;2023-05-10T04:22:29;0.40;;;0.40;;
21825;SDS011;11075;47.944;11.776;2023-05-10T04:24:57;0.30;;;0.30;;
21825;SDS011;11075;47.944;11.776;2023-05-10T04:27:23;0.20;;;0.20;;
21825;SDS011;11075;47.944;11.776;2023-05-10T04:29:51;1.60;;;0.30;;
21825;SDS011;11075;47.944;11.776;2023-05-10T04:32:18;0.70;;;0.30;;
21825;SDS011;11075;47.944;11.776;2023-05-10T04:34:45;1.40;;;0.20;;
21825;SDS011;11075;47.944;11.776;2023-05-10T04:37:13;1.23;;;0.30;;
21825;SDS011;11075;47.944;11.776;2023-05-10T04:39:40;0.57;;;0.20;;
21825;SDS011;11075;47.944;11.776;2023-05-10T04:42:07;2.30;;;0.37;;
21825;SDS011;11075;47.944;11.776;2023-05-10T04:44:35;0.73;;;0.30;;
21825;SDS011;11075;47.944;11.776;2023-05-10T04:47:02;0.20;;;0.20;;
21825;SDS011;11075;47.944;11.776;2023-05-10T04:49:29;0.20;;;0.20;;
21825;SDS011;11075;47.944;11.776;2023-05-10T04:51:56;0.53;;;0.27;;
21825;SDS011;11075;47.944;11.776;2023-05-10T04:54:23;0.70;;;0.40;;
21825;SDS011;11075;47.944;11.776;2023-05-10T04:56:50;2.03;;;0.33;;
21825;SDS011;11075;47.944;11.776;2023-05-10T04:59:18;0.30;;;0.30;;
21825;SDS011;11075;47.944;11.776;2023-05-10T05:01:44;1.75;;;0.30;;
21825;SDS011;11075;47.944;11.776;2023-05-10T05:04:11;0.90;;;0.40;;
21825;SDS011;11075;47.944;11.776;2023-05-10T05:06:38;0.30;;;0.30;;
21825;SDS011;11075;47.944;11.776;2023-05-10T05:09:05;0.53;;;0.27;;
21825;SDS011;11075;47.944;11.776;2023-05-10T05:11:32;1.42;;;0.40;;
21825;SDS011;11075;47.944;11.776;2023-05-10T05:13:59;0.40;;;0.40;;
21825;SDS011;11075;47.944;11.776;2023-05-10T05:16:26;0.53;;;0.20;;
21825;SDS011;11075;47.944;11.776;2023-05-10T05:18:53;0.47;;;0.30;;
21825;SDS011;11075;47.944;11.776;2023-05-10T05:21:19;0.73;;;0.27;;
21825;SDS011;11075;47.944;11.776;2023-05-10T05:23:47;1.40;;;0.63;;
21825;SDS011;11075;47.944;11.776;2023-05-10T05:26:14;1.73;;;0.30;;
21825;SDS011;11075;47.944;11.776;2023-05-10T05:28:41;2.93;;;0.40;;
21825;SDS011;11075;47.944;11.776;2023-05-10T05:31:08;0.20;;;0.15;;
21825;SDS011;11075;47.944;11.776;2023-05-10T05:33:36;0.25;;;0.25;;
21825;SDS011;11075;47.944;11.776;2023-05-10T05:36:04;0.33;;;0.30;;
21825;SDS011;11075;47.944;11.776;2023-05-10T05:38:32;2.05;;;0.30;;
21825;SDS011;11075;47.944;11.776;2023-05-10T05:40:59;0.97;;;0.37;;
21825;SDS011;11075;47.944;11.776;2023-05-10T05:43:26;0.30;;;0.30;;
21825;SDS011;11075;47.944;11.776;2023-05-10T05:45:53;2.05;;;0.28;;
21825;SDS011;11075;47.944;11.776;2023-05-10T05:48:20;3.73;;;0.60;;
21825;SDS011;11075;47.944;11.776;2023-05-10T05:50:47;0.20;;;0.20;;
21825;SDS011;11075;47.944;11.776;2023-05-10T05:53:14;0.20;;;0.20;;
21825;SDS011;11075;47.944;11.776;2023-05-10T05:55:54;0.47;;;0.20;;
21825;SDS011;11075;47.944;11.776;2023-05-10T05:58:23;0.40;;;0.40;;
21825;SDS011;11075;47.944;11.776;2023-05-10T06:00:51;0.52;;;0.38;;
21825;SDS011;11075;47.944;11.776;2023-05-10T06:03:19;0.83;;;0.53;;
21825;SDS011;11075;47.944;11.776;2023-05-10T06:05:46;2.42;;;0.38;;
21825;SDS011;11075;47.944;11.776;2023-05-10T06:08:13;0.85;;;0.30;;
21825;SDS011;11075;47.944;11.776;2023-05-10T06:10:40;0.40;;;0.37;;
21825;SDS011;11075;47.944;11.776;2023-05-10T06:13:07;0.65;;;0.30;;
21825;SDS011;11075;47.944;11.776;2023-05-10T06:15:34;0.97;;;0.40;;
21825;SDS011;11075;47.944;11.776;2023-05-10T06:18:01;0.37;;;0.33;;
21825;SDS011;11075;47.944;11.776;2023-05-10T06:20:28;2.53;;;0.50;;
21825;SDS011;11075;47.944;11.776;2023-05-10T06:22:54;4.43;;;0.67;;
21825;SDS011;11075;47.944;11.776;2023-05-10T06:25:21;1.45;;;0.40;;
21825;SDS011;11075;47.944;11.776;2023-05-10T06:27:48;0.55;;;0.40;;
21825;SDS011;11075;47.944;11.776;2023-05-10T06:30:19;2.07;;;0.50;;
21825;SDS011;11075;47.944;11.776;2023-05-10T06:32:46;0.70;;;0.40;;
21825;SDS011;11075;47.944;11.776;2023-05-10T06:35:13;2.03;;;0.40;;
21825;SDS011;11075;47.944;11.776;2023-05-10T06:37:40;1.07;;;0.40;;
21825;SDS011;11075;47.944;11.776;2023-05-10T06:40:07;1.97;;;0.50;;
21825;SDS011;11075;47.944;11.776;2023-05-10T06:42:35;6.73;;;0.50;;
21825;SDS011;11075;47.944;11.776;2023-05-10T06:45:03;1.70;;;0.43;;
21825;SDS011;11075;47.944;11.776;2023-05-10T06:47:30;1.73;;;0.50;;
21825;SDS011;11075;47.944;11.776;2023-05-10T06:49:57;0.30;;;0.30;;
21825;SDS011;11075;47.944;11.776;2023-05-10T06:52:24;3.05;;;0.40;;
21825;SDS011;11075;47.944;11.776;2023-05-10T06:54:51;0.63;;;0.50;;
21825;SDS011;11075;47.944;11.776;2023-05-10T06:57:18;3.33;;;0.40;;
21825;SDS011;11075;47.944;11.776;2023-05-10T06:59:58;0.63;;;0.50;;
21825;SDS011;11075;47.944;11.776;2023-05-10T07:02:25;3.57;;;0.50;;
21825;SDS011;11075;47.944;11.776;2023-05-10T07:04:53;4.13;;;0.77;;
21825;SDS011;11075;47.944;11.776;2023-05-10T07:07:20;0.63;;;0.50;;
21825;SDS011;11075;47.944;11.776;2023-05-10T07:09:47;20.13;;;0.93;;
21825;SDS011;11075;47.944;11.776;2023-05-10T07:12:15;2.97;;;0.57;;
21825;SDS011;11075;47.944;11.776;2023-05-10T07:14:42;3.70;;;0.60;;
21825;SDS011;11075;47.944;11.776;2023-05-10T07:17:09;0.70;;;0.53;;
21825;SDS011;11075;47.944;11.776;2023-05-10T07:19:36;2.97;;;0.80;;
21825;SDS011;11075;47.944;11.776;2023-05-10T07:22:03;1.20;;;0.50;;
21825;SDS011;11075;47.944;11.776;2023-05-10T07:24:30;17.95;;;2.22;;
21825;SDS011;11075;47.944;11.776;2023-05-10T07:26:58;1.55;;;0.57;;
21825;SDS011;11075;47.944;11.776;2023-05-10T07:29:25;4.70;;;0.93;;
21825;SDS011;11075;47.944;11.776;2023-05-10T07:31:53;4.28;;;0.70;;
21825;SDS011;11075;47.944;11.776;2023-05-10T07:34:24;3.90;;;0.70;;
21825;SDS011;11075;47.944;11.776;2023-05-10T07:36:51;5.53;;;0.70;;
21825;SDS011;11075;47.944;11.776;2023-05-10T07:39:18;1.38;;;0.82;;
21825;SDS011;11075;47.944;11.776;2023-05-10T07:41:56;5.22;;;0.80;;
21825;SDS011;11075;47.944;11.776;2023-05-10T07:44:23;0.90;;;0.60;;
21825;SDS011;11075;47.944;11.776;2023-05-10T07:46:50;3.63;;;0.55;;
21825;SDS011;11075;47.944;11.776;2023-05-10T07:49:17;1.02;;;0.80;;
21825;SDS011;11075;47.944;11.776;2023-05-10T07:51:44;2.05;;;0.80;;
21825;SDS011;11075;47.944;11.776;2023-05-10T07:54:11;4.22;;;0.85;;
21825;SDS011;11075;47.944;11.776;2023-05-10T07:56:40;3.20;;;0.77;;
21825;SDS011;11075;47.944;11.776;2023-05-10T07:59:14;7.20;;;0.75;;
21825;SDS011;11075;47.944;11.776;2023-05-10T08:01:42;2.33;;;0.95;;
21825;SDS011;11075;47.944;11.776;2023-05-10T08:04:09;4.57;;;0.70;;
21825;SDS011;11075;47.944;11.776;2023-05-10T08:06:36;0.60;;;0.60;;
21825;SDS011;11075;47.944;11.776;2023-05-10T08:09:04;1.08;;;0.52;;
21825;SDS011;11075;47.944;11.776;2023-05-10T08:11:31;0.77;;;0.77;;
21825;SDS011;11075;47.944;11.776;2023-05-10T08:14:00;5.30;;;0.80;;
21825;SDS011;11075;47.944;11.776;2023-05-10T08:16:27;1.00;;;0.90;;
21825;SDS011;11075;47.944;11.776;2023-05-10T08:18:54;5.10;;;0.60;;
21825;SDS011;11075;47.944;11.776;2023-05-10T08:21:21;1.23;;;0.70;;
21825;SDS011;11075;47.944;11.776;2023-05-10T08:23:49;0.60;;;0.60;;
21825;SDS011;11075;47.944;11.776;2023-05-10T08:26:16;0.98;;;0.60;;
21825;SDS011;11075;47.944;11.776;2023-05-10T08:28:42;0.43;;;0.43;;
21825;SDS011;11075;47.944;11.776;2023-05-10T08:31:09;1.17;;;0.45;;
21825;SDS011;11075;47.944;11.776;2023-05-10T08:33:36;1.60;;;0.50;;
21825;SDS011;11075;47.944;11.776;2023-05-10T08:36:03;0.40;;;0.40;;
21825;SDS011;11075;47.944;11.776;2023-05-10T08:38:30;2.33;;;0.68;;
21825;SDS011;11075;47.944;11.776;2023-05-10T08:40:57;1.75;;;0.68;;
21825;SDS011;11075;47.944;11.776;2023-05-10T08:43:29;0.60;;;0.57;;
21825;SDS011;11075;47.944;11.776;2023-05-10T08:45:56;1.13;;;0.57;;
21825;SDS011;11075;47.944;11.776;2023-05-10T08:48:27;2.47;;;0.70;;
21825;SDS011;11075;47.944;11.776;2023-05-10T08:50:55;3.53;;;0.70;;
21825;SDS011;11075;47.944;11.776;2023-05-10T08:53:25;1.08;;;0.60;;
21825;SDS011;11075;47.944;11.776;2023-05-10T08:55:55;3.83;;;0.65;;
21825;SDS011;11075;47.944;11.776;2023-05-10T08:58:22;1.02;;;0.68;;
21825;SDS011;11075;47.944;11.776;2023-05-10T09:00:49;1.15;;;0.70;;
21825;SDS011;11075;47.944;11.776;2023-05-10T09:03:19;0.80;;;0.52;;
21825;SDS011;11075;47.944;11.776;2023-05-10T09:05:47;2.15;;;0.70;;
21825;SDS011;11075;47.944;11.776;2023-05-10T09:08:15;0.77;;;0.50;;
21825;SDS011;11075;47.944;11.776;2023-05-10T09:10:45;2.83;;;0.77;;
21825;SDS011;11075;47.944;11.776;2023-05-10T09:13:14;0.65;;;0.60;;
21825;SDS011;11075;47.944;11.776;2023-05-10T09:15:43;1.27;;;0.50;;
21825;SDS011;11075;47.944;11.776;2023-05-10T09:18:11;0.50;;;0.50;;
21825;SDS011;11075;47.944;11.776;2023-05-10T09:20:39;2.35;;;0.47;;
21825;SDS011;11075;47.944;11.776;2023-05-10T09:23:07;0.80;;;0.50;;
21825;SDS011;11075;47.944;11.776;2023-05-10T09:25:33;1.35;;;0.60;;
21825;SDS011;11075;47.944;11.776;2023-05-10T09:28:01;3.63;;;0.82;;
21825;SDS011;11075;47.944;11.776;2023-05-10T09:30:28;1.95;;;1.02;;
21825;SDS011;11075;47.944;11.776;2023-05-10T09:32:56;2.42;;;0.90;;
21825;SDS011;11075;47.944;11.776;2023-05-10T09:35:26;4.03;;;0.80;;
21825;SDS011;11075;47.944;11.776;2023-05-10T09:37:56;0.93;;;0.70;;
21825;SDS011;11075;47.944;11.776;2023-05-10T09:40:28;0.80;;;0.73;;
21825;SDS011;11075;47.944;11.776;2023-05-10T09:42:57;4.95;;;0.70;;
21825;SDS011;11075;47.944;11.776;2023-05-10T09:45:29;0.50;;;0.50;;
21825;SDS011;11075;47.944;11.776;2023-05-10T09:47:57;4.13;;;0.60;;
21825;SDS011;11075;47.944;11.776;2023-05-10T09:50:25;1.52;;;0.80;;
21825;SDS011;11075;47.944;11.776;2023-05-10T09:52:54;1.95;;;0.80;;
21825;SDS011;11075;47.944;11.776;2023-05-10T09:58:11;1.70;;;0.82;;
21825;SDS011;11075;47.944;11.776;2023-05-10T10:00:39;0.60;;;0.60;;
21825;SDS011;11075;47.944;11.776;2023-05-10T10:03:14;3.90;;;0.52;;
21825;SDS011;11075;47.944;11.776;2023-05-10T10:05:42;1.52;;;0.80;;
21825;SDS011;11075;47.944;11.776;2023-05-10T10:08:10;1.08;;;0.95;;
21825;SDS011;11075;47.944;11.776;2023-05-10T10:10:39;1.60;;;0.82;;
21825;SDS011;11075;47.944;11.776;2023-05-10T10:13:07;1.83;;;1.00;;
21825;SDS011;11075;47.944;11.776;2023-05-10T10:15:34;4.07;;;0.88;;
21825;SDS011;11075;47.944;11.776;2023-05-10T10:18:02;2.65;;;0.88;;
21825;SDS011;11075;47.944;11.776;2023-05-10T10:20:30;1.73;;;1.02;;
21825;SDS011;11075;47.944;11.776;2023-05-10T10:22:58;1.92;;;0.88;;
21825;SDS011;11075;47.944;11.776;2023-05-10T10:25:25;1.35;;;0.90;;
21825;SDS011;11075;47.944;11.776;2023-05-10T10:35:53;0.85;;;0.85;;
21825;SDS011;11075;47.944;11.776;2023-05-10T10:38:21;1.15;;;0.93;;
21825;SDS011;11075;47.944;11.776;2023-05-10T10:40:49;1.90;;;0.63;;
21825;SDS011;11075;47.944;11.776;2023-05-10T10:43:28;2.75;;;0.80;;
21825;SDS011;11075;47.944;11.776;2023-05-10T10:48:47;1.80;;;0.80;;
21825;SDS011;11075;47.944;11.776;2023-05-10T10:51:16;1.00;;;0.80;;
21825;SDS011;11075;47.944;11.776;2023-05-10T10:53:43;3.10;;;1.20;;
21825;SDS011;11075;47.944;11.776;2023-05-10T10:56:11;3.55;;;0.70;;
21825;SDS011;11075;47.944;11.776;2023-05-10T10:58:42;2.05;;;0.50;;
21825;SDS011;11075;47.944;11.776;2023-05-10T11:01:18;1.17;;;0.50;;
21825;SDS011;11075;47.944;11.776;2023-05-10T11:03:56;0.98;;;0.57;;
21825;SDS011;11075;47.944;11.776;2023-05-10T11:06:44;1.27;;;0.70;;
21825;SDS011;11075;47.944;11.776;2023-05-10T11:09:11;2.25;;;0.65;;
21825;SDS011;11075;47.944;11.776;2023-05-10T11:11:48;4.15;;;0.70;;
21825;SDS011;11075;47.944;11.776;2023-05-10T11:14:21;0.70;;;0.70;;
21825;SDS011;11075;47.944;11.776;2023-05-10T11:16:49;0.70;;;0.70;;
21825;SDS011;11075;47.944;11.776;2023-05-10T11:19:17;0.50;;;0.50;;
21825;SDS011;11075;47.944;11.776;2023-05-10T11:21:51;3.85;;;1.00;;
21825;SDS011;11075;47.944;11.776;2023-05-10T11:24:38;2.38;;;0.85;;
21825;SDS011;11075;47.944;11.776;2023-05-10T11:27:05;1.30;;;0.88;;
21825;SDS011;11075;47.944;11.776;2023-05-10T11:29:32;4.07;;;0.88;;
21825;SDS011;11075;47.944;11.776;2023-05-10T11:31:59;2.55;;;0.80;;
21825;SDS011;11075;47.944;11.776;2023-05-10T11:34:30;0.65;;;0.52;;
21825;SDS011;11075;47.944;11.776;2023-05-10T11:37:00;0.88;;;0.70;;
21825;SDS011;11075;47.944;11.776;2023-05-10T11:39:28;2.15;;;0.50;;
21825;SDS011;11075;47.944;11.776;2023-05-10T11:41:56;2.83;;;0.80;;
21825;SDS011;11075;47.944;11.776;2023-05-10T11:44:30;0.85;;;0.38;;
21825;SDS011;11075;47.944;11.776;2023-05-10T11:46:59;4.30;;;0.40;;
21825;SDS011;11075;47.944;11.776;2023-05-10T11:49:27;3.13;;;0.65;;
21825;SDS011;11075;47.944;11.776;2023-05-10T11:52:03;0.88;;;0.30;;
21825;SDS011;11075;47.944;11.776;2023-05-10T11:54:33;1.27;;;0.40;;
21825;SDS011;11075;47.944;11.776;2023-05-10T11:57:03;1.50;;;0.47;;
21825;SDS011;11075;47.944;11.776;2023-05-10T11:59:30;2.50;;;0.55;;
21825;SDS011;11075;47.944;11.776;2023-05-10T12:01:57;1.85;;;0.50;;
21825;SDS011;11075;47.944;11.776;2023-05-10T12:04:24;3.60;;;0.60;;
21825;SDS011;11075;47.944;11.776;2023-05-10T12:06:54;2.25;;;0.68;;
21825;SDS011;11075;47.944;11.776;2023-05-10T12:09:22;0.50;;;0.50;;
21825;SDS011;11075;47.944;11.776;2023-05-10T12:11:55;3.05;;;0.50;;
21825;SDS011;11075;47.944;11.776;2023-05-10T12:14:26;3.05;;;0.90;;
21825;SDS011;11075;47.944;11.776;2023-05-10T12:16:53;4.05;;;0.50;;
21825;SDS011;11075;47.944;11.776;2023-05-10T12:19:20;5.43;;;0.65;;
21825;SDS011;11075;47.944;11.776;2023-05-10T12:21:47;1.38;;;0.60;;
21825;SDS011;11075;47.944;11.776;2023-05-10T12:24:14;1.77;;;0.77;;
21825;SDS011;11075;47.944;11.776;2023-05-10T12:26:44;2.70;;;0.98;;
21825;SDS011;11075;47.944;11.776;2023-05-10T12:29:12;1.35;;;0.60;;
21825;SDS011;11075;47.944;11.776;2023-05-10T12:31:57;4.10;;;0.80;;
21825;SDS011;11075;47.944;11.776;2023-05-10T12:34:26;3.47;;;0.80;;
21825;SDS011;11075;47.944;11.776;2023-05-10T12:36:57;1.58;;;0.80;;
21825;SDS011;11075;47.944;11.776;2023-05-10T12:39:25;1.35;;;0.70;;
21825;SDS011;11075;47.944;11.776;2023-05-10T12:41:52;0.70;;;0.70;;
21825;SDS011;11075;47.944;11.776;2023-05-10T12:44:19;1.88;;;0.57;;
21825;SDS011;11075;47.944;11.776;2023-05-10T12:46:46;1.77;;;0.98;;
21825;SDS011;11075;47.944;11.776;2023-05-10T12:49:12;1.45;;;0.95;;
21825;SDS011;11075;47.944;11.776;2023-05-10T12:51:39;0.85;;;0.85;;
21825;SDS011;11075;47.944;11.776;2023-05-10T12:54:07;5.32;;;0.98;;
21825;SDS011;11075;47.944;11.776;2023-05-10T12:56:33;3.50;;;0.90;;
21825;SDS011;11075;47.944;11.776;2023-05-10T12:59:00;1.98;;;0.88;;
21825;SDS011;11075;47.944;11.776;2023-05-10T13:01:27;3.92;;;1.08;;
21825;SDS011;11075;47.944;11.776;2023-05-10T13:03:54;2.60;;;1.15;;
21825;SDS011;11075;47.944;11.776;2023-05-10T13:06:21;1.77;;;0.65;;
21825;SDS011;11075;47.944;11.776;2023-05-10T13:08:48;4.63;;;0.75;;
21825;SDS011;11075;47.944;11.776;2023-05-10T13:11:15;3.10;;;1.00;;
21825;SDS011;11075;47.944;11.776;2023-05-10T13:13:43;3.03;;;1.20;;
21825;SDS011;11075;47.944;11.776;2023-05-10T13:16:10;1.70;;;1.00;;
21825;SDS011;11075;47.944;11.776;2023-05-10T13:18:37;1.85;;;0.98;;
21825;SDS011;11075;47.944;11.776;2023-05-10T13:21:04;2.47;;;0.90;;
21825;SDS011;11075;47.944;11.776;2023-05-10T13:23:31;1.85;;;0.90;;
21825;SDS011;11075;47.944;11.776;2023-05-10T13:25:58;3.42;;;1.17;;
21825;SDS011;11075;47.944;11.776;2023-05-10T13:28:25;1.23;;;0.90;;
21825;SDS011;11075;47.944;11.776;2023-05-10T13:30:53;2.25;;;0.82;;
21825;SDS011;11075;47.944;11.776;2023-05-10T13:33:19;0.82;;;0.80;;
21825;SDS011;11075;47.944;11.776;2023-05-10T13:35:46;1.02;;;0.68;;
21825;SDS011;11075;47.944;11.776;2023-05-10T13:38:13;1.02;;;0.80;;
21825;SDS011;11075;47.944;11.776;2023-05-10T13:40:40;1.77;;;0.80;;
21825;SDS011;11075;47.944;11.776;2023-05-10T13:43:07;2.10;;;0.60;;
21825;SDS011;11075;47.944;11.776;2023-05-10T13:45:34;3.20;;;1.17;;
21825;SDS011;11075;47.944;11.776;2023-05-10T13:48:01;1.98;;;1.00;;
21825;SDS011;11075;47.944;11.776;2023-05-10T13:50:28;3.50;;;0.98;;
21825;SDS011;11075;47.944;11.776;2023-05-10T13:52:56;2.85;;;1.13;;
21825;SDS011;11075;47.944;11.776;2023-05-10T13:55:23;1.27;;;0.70;;
21825;SDS011;11075;47.944;11.776;2023-05-10T13:57:49;2.08;;;0.80;;
21825;SDS011;11075;47.944;11.776;2023-05-10T14:00:17;3.08;;;0.80;;
21825;SDS011;11075;47.944;11.776;2023-05-10T14:02:44;4.05;;;0.70;;
21825;SDS011;11075;47.944;11.776;2023-05-10T14:05:10;2.60;;;0.80;;
21825;SDS011;11075;47.944;11.776;2023-05-10T14:07:38;1.38;;;0.60;;
21825;SDS011;11075;47.944;11.776;2023-05-10T14:10:05;1.05;;;0.60;;
21825;SDS011;11075;47.944;11.776;2023-05-10T14:12:32;1.42;;;0.50;;
21825;SDS011;11075;47.944;11.776;2023-05-10T14:14:59;0.95;;;0.70;;
21825;SDS011;11075;47.944;11.776;2023-05-10T14:17:26;0.63;;;0.63;;
21825;SDS011;11075;47.944;11.776;2023-05-10T14:19:54;1.15;;;0.68;;
21825;SDS011;11075;47.944;11.776;2023-05-10T14:22:20;0.82;;;0.60;;
21825;SDS011;11075;47.944;11.776;2023-05-10T14:24:47;2.17;;;0.70;;
21825;SDS011;11075;47.944;11.776;2023-05-10T14:27:14;1.85;;;1.05;;
21825;SDS011;11075;47.944;11.776;2023-05-10T14:29:42;2.20;;;0.80;;
21825;SDS011;11075;47.944;11.776;2023-05-10T14:32:09;2.03;;;0.60;;
21825;SDS011;11075;47.944;11.776;2023-05-10T14:34:36;1.10;;;0.60;;
21825;SDS011;11075;47.944;11.776;2023-05-10T14:37:04;1.83;;;0.70;;
21825;SDS011;11075;47.944;11.776;2023-05-10T14:39:30;1.25;;;0.70;;
21825;SDS011;11075;47.944;11.776;2023-05-10T14:41:58;1.85;;;0.60;;
21825;SDS011;11075;47.944;11.776;2023-05-10T14:44:25;1.00;;;0.47;;
21825;SDS011;11075;47.944;11.776;2023-05-10T14:46:52;1.08;;;0.50;;
21825;SDS011;11075;47.944;11.776;2023-05-10T14:49:19;2.15;;;0.70;;
21825;SDS011;11075;47.944;11.776;2023-05-10T14:51:49;1.20;;;0.60;;
21825;SDS011;11075;47.944;11.776;2023-05-10T14:54:15;1.77;;;0.80;;
21825;SDS011;11075;47.944;11.776;2023-05-10T14:56:43;1.35;;;0.70;;
21825;SDS011;11075;47.944;11.776;2023-05-10T14:59:10;5.43;;;0.90;;
21825;SDS011;11075;47.944;11.776;2023-05-10T15:01:38;1.52;;;0.70;;
21825;SDS011;11075;47.944;11.776;2023-05-10T15:04:08;3.35;;;0.45;;
21825;SDS011;11075;47.944;11.776;2023-05-10T15:06:36;0.50;;;0.50;;
21825;SDS011;11075;47.944;11.776;2023-05-10T15:09:03;1.55;;;0.65;;
21825;SDS011;11075;47.944;11.776;2023-05-10T15:11:30;1.98;;;0.47;;